sensor_id;sensor_type;location;lat;lon;timestamp;pressure;altitude;pressure_sealevel;temperature;humidity
50590;BME280;36547;50.514;30.840;2023-06-22T00:00:08;100374.44;;;20.12;69.60
50590;BME280;36547;50.514;30.840;2023-06-22T00:01:13;100378.39;;;20.08;69.59
50590;BME280;36547;50.514;30.840;2023-06-22T00:02:16;100380.10;;;20.09;69.84
50590;BME280;36547;50.514;30.840;2023-06-22T00:03:20;100379.67;;;20.04;69.79
50590;BME280;36547;50.514;30.840;2023-06-22T00:04:23;100380.66;;;20.03;69.82
50590;BME280;36547;50.514;30.840;2023-06-22T00:05:26;100377.67;;;20.06;69.78
50590;BME280;36547;50.514;30.840;2023-06-22T00:06:29;100370.85;;;20.02;70.02
50590;BME280;36547;50.514;30.840;2023-06-22T00:07:31;100381.19;;;19.97;70.32
50590;BME280;36547;50.514;30.840;2023-06-22T00:08:34;100373.22;;;19.95;70.03
50590;BME280;36547;50.514;30.840;2023-06-22T00:09:36;100377.03;;;19.93;70.01
50590;BME280;36547;50.514;30.840;2023-06-22T00:10:41;100379.47;;;19.96;70.24
50590;BME280;36547;50.514;30.840;2023-06-22T00:11:44;100380.92;;;20.00;70.58
50590;BME280;36547;50.514;30.840;2023-06-22T00:12:46;100380.20;;;19.98;70.79
50590;BME280;36547;50.514;30.840;2023-06-22T00:13:48;100377.50;;;19.98;70.83
50590;BME280;36547;50.514;30.840;2023-06-22T00:14:51;100373.81;;;19.99;70.86
50590;BME280;36547;50.514;30.840;2023-06-22T00:15:53;100381.77;;;20.00;70.88
50590;BME280;36547;50.514;30.840;2023-06-22T00:16:55;100382.77;;;19.99;70.71
50590;BME280;36547;50.514;30.840;2023-06-22T00:17:58;100380.20;;;19.98;70.73
50590;BME280;36547;50.514;30.840;2023-06-22T00:19:01;100381.19;;;19.97;70.72
50590;BME280;36547;50.514;30.840;2023-06-22T00:20:03;100380.06;;;19.99;70.49
50590;BME280;36547;50.514;30.840;2023-06-22T00:21:06;100384.22;;;20.03;70.25
50590;BME280;36547;50.514;30.840;2023-06-22T00:22:09;100378.95;;;20.02;70.31
50590;BME280;36547;50.514;30.840;2023-06-22T00:23:15;100380.36;;;20.06;70.20
50590;BME280;36547;50.514;30.840;2023-06-22T00:24:18;100379.67;;;20.04;70.18
50590;BME280;36547;50.514;30.840;2023-06-22T00:25:20;100382.08;;;20.07;70.00
50590;BME280;36547;50.514;30.840;2023-06-22T00:26:23;100375.83;;;20.06;69.71
50590;BME280;36547;50.514;30.840;2023-06-22T00:28:38;100385.14;;;20.23;69.68
50590;BME280;36547;50.514;30.840;2023-06-22T00:29:41;100389.14;;;19.98;70.20
50590;BME280;36547;50.514;30.840;2023-06-22T00:30:43;100386.31;;;20.00;69.98
50590;BME280;36547;50.514;30.840;2023-06-22T00:31:46;100377.23;;;20.01;69.82
50590;BME280;36547;50.514;30.840;2023-06-22T00:32:49;100385.06;;;20.04;69.74
50590;BME280;36547;50.514;30.840;2023-06-22T00:33:52;100391.32;;;20.04;69.94
50590;BME280;36547;50.514;30.840;2023-06-22T00:34:54;100386.48;;;20.08;69.99
50590;BME280;36547;50.514;30.840;2023-06-22T00:35:58;100388.33;;;20.07;69.89
50590;BME280;36547;50.514;30.840;2023-06-22T00:37:00;100385.20;;;20.02;70.08
50590;BME280;36547;50.514;30.840;2023-06-22T00:38:03;100390.72;;;20.01;70.22
50590;BME280;36547;50.514;30.840;2023-06-22T00:39:05;100390.72;;;20.01;70.24
50590;BME280;36547;50.514;30.840;2023-06-22T00:40:10;100384.73;;;19.97;70.31
50590;BME280;36547;50.514;30.840;2023-06-22T00:41:13;100392.95;;;19.96;70.14
50590;BME280;36547;50.514;30.840;2023-06-22T00:42:17;100389.14;;;19.98;70.07
50590;BME280;36547;50.514;30.840;2023-06-22T00:43:19;100388.29;;;19.98;70.21
50590;BME280;36547;50.514;30.840;2023-06-22T00:44:22;100389.14;;;19.98;70.32
50590;BME280;36547;50.514;30.840;2023-06-22T00:45:26;100389.14;;;19.98;70.18
50590;BME280;36547;50.514;30.840;2023-06-22T00:46:29;100383.16;;;19.95;70.06
50590;BME280;36547;50.514;30.840;2023-06-22T00:47:33;100386.58;;;19.97;70.00
50590;BME280;36547;50.514;30.840;2023-06-22T00:48:36;100383.88;;;19.97;70.06
50590;BME280;36547;50.514;30.840;2023-06-22T00:49:39;100390.86;;;19.99;70.16
50590;BME280;36547;50.514;30.840;2023-06-22T00:50:41;100391.71;;;20.00;70.50
50590;BME280;36547;50.514;30.840;2023-06-22T00:51:44;100388.88;;;20.01;70.41
50590;BME280;36547;50.514;30.840;2023-06-22T00:52:52;100389.74;;;20.02;70.37
50590;BME280;36547;50.514;30.840;2023-06-22T00:53:55;100386.78;;;20.05;70.34
50590;BME280;36547;50.514;30.840;2023-06-22T00:54:59;100385.92;;;20.04;70.29
50590;BME280;36547;50.514;30.840;2023-06-22T00:56:02;100391.16;;;20.06;70.33
50590;BME280;36547;50.514;30.840;2023-06-22T00:57:05;100389.91;;;20.10;70.09
50590;BME280;36547;50.514;30.840;2023-06-22T00:58:08;100395.17;;;20.11;70.01
50590;BME280;36547;50.514;30.840;2023-06-22T00:59:10;100386.36;;;20.09;70.01
50590;BME280;36547;50.514;30.840;2023-06-22T01:00:15;100391.75;;;20.09;70.08
50590;BME280;36547;50.514;30.840;2023-06-22T01:01:18;100392.02;;;20.06;70.04
50590;BME280;36547;50.514;30.840;2023-06-22T01:02:20;100388.88;;;20.01;70.09
50590;BME280;36547;50.514;30.840;2023-06-22T01:03:23;100391.58;;;20.01;70.17
50590;BME280;36547;50.514;30.840;2023-06-22T01:04:33;100388.29;;;19.98;70.19
50590;BME280;36547;50.514;30.840;2023-06-22T01:05:31;100391.25;;;19.95;70.40
50590;BME280;36547;50.514;30.840;2023-06-22T01:09:28;100391.71;;;20.00;70.57
50590;BME280;36547;50.514;30.840;2023-06-22T01:10:48;100386.91;;;20.03;70.42
50590;BME280;36547;50.514;30.840;2023-06-22T01:13:06;100396.92;;;20.22;70.19
50590;BME280;36547;50.514;30.840;2023-06-22T01:15:48;100401.77;;;20.19;70.32
50590;BME280;36547;50.514;30.840;2023-06-22T01:16:51;100395.66;;;19.96;70.54
50590;BME280;36547;50.514;30.840;2023-06-22T01:17:56;100393.16;;;20.04;70.19
50590;BME280;36547;50.514;30.840;2023-06-22T01:20:38;100396.14;;;20.31;69.83
50590;BME280;36547;50.514;30.840;2023-06-22T01:21:42;100392.87;;;20.07;70.20
50590;BME280;36547;50.514;30.840;2023-06-22T01:23:02;100397.74;;;20.13;70.06
50590;BME280;36547;50.514;30.840;2023-06-22T01:24:26;100398.11;;;20.29;69.94
50590;BME280;36547;50.514;30.840;2023-06-22T01:25:46;100398.00;;;20.10;70.08
50590;BME280;36547;50.514;30.840;2023-06-22T01:29:27;100395.51;;;20.18;69.63
50590;BME280;36547;50.514;30.840;2023-06-22T01:30:31;100399.33;;;20.16;69.77
50590;BME280;36547;50.514;30.840;2023-06-22T01:31:34;100403.87;;;20.15;69.68
50590;BME280;36547;50.514;30.840;2023-06-22T01:32:39;100403.87;;;20.15;69.59
50590;BME280;36547;50.514;30.840;2023-06-22T01:33:44;100402.55;;;20.09;69.68
50590;BME280;36547;50.514;30.840;2023-06-22T01:34:49;100400.97;;;20.07;69.70
50590;BME280;36547;50.514;30.840;2023-06-22T01:35:52;100405.67;;;20.05;69.75
50590;BME280;36547;50.514;30.840;2023-06-22T01:36:55;100404.95;;;20.03;69.78
50590;BME280;36547;50.514;30.840;2023-06-22T01:37:59;100401.52;;;20.01;69.84
50590;BME280;36547;50.514;30.840;2023-06-22T01:39:02;100404.73;;;19.95;70.03
50590;BME280;36547;50.514;30.840;2023-06-22T01:40:08;100404.73;;;19.95;70.01
50590;BME280;36547;50.514;30.840;2023-06-22T01:41:12;100398.48;;;19.94;69.99
50590;BME280;36547;50.514;30.840;2023-06-22T01:42:14;100406.70;;;19.93;70.05
50590;BME280;36547;50.514;30.840;2023-06-22T01:43:17;100406.02;;;19.91;70.16
50590;BME280;36547;50.514;30.840;2023-06-22T01:44:20;100406.14;;;19.89;70.21
50590;BME280;36547;50.514;30.840;2023-06-22T01:45:24;100403.58;;;19.88;70.26
50590;BME280;36547;50.514;30.840;2023-06-22T01:46:28;100408.38;;;19.84;70.32
50590;BME280;36547;50.514;30.840;2023-06-22T01:47:31;100403.45;;;19.89;70.25
50590;BME280;36547;50.514;30.840;2023-06-22T01:48:34;100409.70;;;19.90;70.21
50590;BME280;36547;50.514;30.840;2023-06-22T01:49:37;100405.28;;;19.89;70.20
50590;BME280;36547;50.514;30.840;2023-06-22T01:50:40;100408.71;;;19.91;70.21
50590;BME280;36547;50.514;30.840;2023-06-22T01:51:43;100406.84;;;19.91;70.17
50590;BME280;36547;50.514;30.840;2023-06-22T01:52:45;100407.13;;;19.88;70.25
50590;BME280;36547;50.514;30.840;2023-06-22T01:53:47;100403.83;;;19.85;70.52
50590;BME280;36547;50.514;30.840;2023-06-22T01:54:50;100408.38;;;19.84;70.38
50590;BME280;36547;50.514;30.840;2023-06-22T01:55:54;100408.50;;;19.83;70.33
50590;BME280;36547;50.514;30.840;2023-06-22T01:56:58;100399.81;;;19.79;70.51
50590;BME280;36547;50.514;30.840;2023-06-22T01:58:00;100408.76;;;19.80;70.41
50590;BME280;36547;50.514;30.840;2023-06-22T02:00:17;100410.73;;;19.77;70.26
50590;BME280;36547;50.514;30.840;2023-06-22T02:01:23;100410.03;;;19.75;70.34
50590;BME280;36547;50.514;30.840;2023-06-22T02:02:38;100404.01;;;19.93;70.38
50590;BME280;36547;50.514;30.840;2023-06-22T02:03:45;100413.97;;;19.71;70.71
50590;BME280;36547;50.514;30.840;2023-06-22T02:05:16;100401.91;;;19.96;70.34
50590;BME280;36547;50.514;30.840;2023-06-22T02:06:23;100409.56;;;19.70;70.59
50590;BME280;36547;50.514;30.840;2023-06-22T02:08:41;100399.89;;;19.89;70.35
50590;BME280;36547;50.514;30.840;2023-06-22T02:09:46;100400.01;;;19.66;70.52
50590;BME280;36547;50.514;30.840;2023-06-22T02:10:51;100399.50;;;19.72;70.43
50590;BME280;36547;50.514;30.840;2023-06-22T02:11:56;100409.17;;;19.75;70.48
50590;BME280;36547;50.514;30.840;2023-06-22T02:13:00;100397.23;;;19.77;70.36
50590;BME280;36547;50.514;30.840;2023-06-22T02:14:05;100400.09;;;19.76;70.43
50590;BME280;36547;50.514;30.840;2023-06-22T02:15:09;100399.94;;;19.77;70.21
50590;BME280;36547;50.514;30.840;2023-06-22T02:16:13;100403.91;;;19.73;70.18
50590;BME280;36547;50.514;30.840;2023-06-22T02:17:17;100400.36;;;19.73;70.19
50590;BME280;36547;50.514;30.840;2023-06-22T02:18:20;100404.89;;;19.72;70.12
50590;BME280;36547;50.514;30.840;2023-06-22T02:19:23;100407.59;;;19.72;70.07
50590;BME280;36547;50.514;30.840;2023-06-22T02:20:26;100403.62;;;19.76;69.92
50590;BME280;36547;50.514;30.840;2023-06-22T02:21:30;100397.23;;;19.77;69.96
50590;BME280;36547;50.514;30.840;2023-06-22T02:22:33;100412.18;;;19.82;70.12
50590;BME280;36547;50.514;30.840;2023-06-22T02:23:36;100407.77;;;19.81;70.15
50590;BME280;36547;50.514;30.840;2023-06-22T02:24:38;100409.74;;;19.78;70.18
50590;BME280;36547;50.514;30.840;2023-06-22T02:25:40;100401.39;;;19.82;70.14
50590;BME280;36547;50.514;30.840;2023-06-22T02:26:43;100402.63;;;19.77;70.32
50590;BME280;36547;50.514;30.840;2023-06-22T02:27:46;100400.92;;;19.76;70.37
50590;BME280;36547;50.514;30.840;2023-06-22T02:28:48;100401.21;;;19.73;70.46
50590;BME280;36547;50.514;30.840;2023-06-22T02:29:52;100390.13;;;19.76;70.42
50590;BME280;36547;50.514;30.840;2023-06-22T02:30:55;100404.09;;;19.82;70.37
50590;BME280;36547;50.514;30.840;2023-06-22T02:31:57;100402.12;;;19.84;70.50
50590;BME280;36547;50.514;30.840;2023-06-22T02:32:59;100399.89;;;19.89;70.46
50590;BME280;36547;50.514;30.840;2023-06-22T02:34:02;100400.88;;;19.88;70.48
50590;BME280;36547;50.514;30.840;2023-06-22T02:35:05;100404.01;;;19.93;70.37
50590;BME280;36547;50.514;30.840;2023-06-22T02:36:08;100408.16;;;19.97;70.41
50590;BME280;36547;50.514;30.840;2023-06-22T02:37:11;100406.19;;;19.99;70.40
50590;BME280;36547;50.514;30.840;2023-06-22T02:38:15;100402.38;;;20.01;70.42
50590;BME280;36547;50.514;30.840;2023-06-22T02:39:21;100404.22;;;20.01;70.38
50590;BME280;36547;50.514;30.840;2023-06-22T02:40:24;100403.66;;;20.07;70.42
50590;BME280;36547;50.514;30.840;2023-06-22T02:41:27;100407.35;;;20.06;70.45
50590;BME280;36547;50.514;30.840;2023-06-22T02:42:31;100402.42;;;20.11;70.33
50590;BME280;36547;50.514;30.840;2023-06-22T02:43:34;100400.58;;;20.11;70.35
50590;BME280;36547;50.514;30.840;2023-06-22T02:44:37;100405.58;;;20.16;70.27
50590;BME280;36547;50.514;30.840;2023-06-22T02:45:39;100407.55;;;20.14;70.31
50590;BME280;36547;50.514;30.840;2023-06-22T02:46:43;100412.56;;;20.19;70.30
50590;BME280;36547;50.514;30.840;2023-06-22T02:47:46;100401.47;;;20.22;70.20
50590;BME280;36547;50.514;30.840;2023-06-22T02:48:49;100404.03;;;20.23;70.21
50590;BME280;36547;50.514;30.840;2023-06-22T02:49:52;100405.48;;;20.27;70.17
50590;BME280;36547;50.514;30.840;2023-06-22T02:50:54;100403.77;;;20.26;70.19
50590;BME280;36547;50.514;30.840;2023-06-22T02:51:57;100404.36;;;20.30;70.21
50590;BME280;36547;50.514;30.840;2023-06-22T02:53:01;100398.70;;;20.33;70.08
50590;BME280;36547;50.514;30.840;2023-06-22T02:54:06;100393.89;;;20.36;69.89
50590;BME280;36547;50.514;30.840;2023-06-22T02:55:09;100398.17;;;20.39;69.86
50590;BME280;36547;50.514;30.840;2023-06-22T02:56:12;100407.85;;;20.41;69.92
50590;BME280;36547;50.514;30.840;2023-06-22T02:57:14;100409.83;;;20.39;70.02
50590;BME280;36547;50.514;30.840;2023-06-22T02:58:17;100406.14;;;20.40;70.14
50590;BME280;36547;50.514;30.840;2023-06-22T02:59:20;100399.75;;;20.41;69.86
50590;BME280;36547;50.514;30.840;2023-06-22T03:00:22;100401.59;;;20.41;69.99
50590;BME280;36547;50.514;30.840;2023-06-22T03:01:27;100412.39;;;20.41;70.02
50590;BME280;36547;50.514;30.840;2023-06-22T03:02:30;100403.31;;;20.42;69.91
50590;BME280;36547;50.514;30.840;2023-06-22T03:03:33;100402.72;;;20.38;69.98
50590;BME280;36547;50.514;30.840;2023-06-22T03:04:35;100395.20;;;20.42;69.82
50590;BME280;36547;50.514;30.840;2023-06-22T03:05:38;100398.50;;;20.45;69.81
50590;BME280;36547;50.514;30.840;2023-06-22T03:06:41;100400.47;;;20.43;69.98
50590;BME280;36547;50.514;30.840;2023-06-22T03:07:44;100407.32;;;20.48;69.94
50590;BME280;36547;50.514;30.840;2023-06-22T03:08:47;100405.48;;;20.48;70.12
50590;BME280;36547;50.514;30.840;2023-06-22T03:09:49;100406.47;;;20.47;70.17
50590;BME280;36547;50.514;30.840;2023-06-22T03:10:53;100411.56;;;20.50;69.86
50590;BME280;36547;50.514;30.840;2023-06-22T03:11:56;100405.17;;;20.51;69.86
50590;BME280;36547;50.514;30.840;2023-06-22T03:13:00;100406.75;;;20.54;69.95
50590;BME280;36547;50.514;30.840;2023-06-22T03:14:03;100410.17;;;20.56;69.98
50590;BME280;36547;50.514;30.840;2023-06-22T03:15:06;100408.92;;;20.60;70.00
50590;BME280;36547;50.514;30.840;2023-06-22T03:16:11;100412.34;;;20.62;70.01
50590;BME280;36547;50.514;30.840;2023-06-22T03:17:14;100413.20;;;20.62;70.10
50590;BME280;36547;50.514;30.840;2023-06-22T03:18:16;100409.34;;;20.65;70.05
50590;BME280;36547;50.514;30.840;2023-06-22T03:19:18;100421.59;;;20.69;70.04
50590;BME280;36547;50.514;30.840;2023-06-22T03:20:21;100419.61;;;20.71;70.15
50590;BME280;36547;50.514;30.840;2023-06-22T03:21:23;100419.48;;;20.72;70.37
50590;BME280;36547;50.514;30.840;2023-06-22T03:22:27;100422.18;;;20.72;70.34
50590;BME280;36547;50.514;30.840;2023-06-22T03:23:29;100417.36;;;20.76;70.31
50590;BME280;36547;50.514;30.840;2023-06-22T03:24:32;100418.05;;;20.78;70.35
50590;BME280;36547;50.514;30.840;2023-06-22T03:25:35;100409.81;;;20.79;70.39
50590;BME280;36547;50.514;30.840;2023-06-22T03:26:37;100416.52;;;20.85;70.37
50590;BME280;36547;50.514;30.840;2023-06-22T03:27:41;100415.40;;;20.88;70.63
50590;BME280;36547;50.514;30.840;2023-06-22T03:28:44;100413.28;;;20.91;70.38
50590;BME280;36547;50.514;30.840;2023-06-22T03:29:46;100417.39;;;20.95;70.38
50590;BME280;36547;50.514;30.840;2023-06-22T03:30:49;100409.73;;;21.00;70.19
50590;BME280;36547;50.514;30.840;2023-06-22T03:31:52;100416.57;;;21.04;70.13
50590;BME280;36547;50.514;30.840;2023-06-22T03:32:54;100408.02;;;21.09;70.05
50590;BME280;36547;50.514;30.840;2023-06-22T03:33:57;100415.72;;;21.13;69.97
50590;BME280;36547;50.514;30.840;2023-06-22T03:34:59;100410.89;;;21.17;69.91
50590;BME280;36547;50.514;30.840;2023-06-22T03:36:03;100411.51;;;21.21;70.11
50590;BME280;36547;50.514;30.840;2023-06-22T03:37:06;100414.62;;;21.26;70.10
50590;BME280;36547;50.514;30.840;2023-06-22T03:38:08;100410.92;;;21.27;70.17
50590;BME280;36547;50.514;30.840;2023-06-22T03:39:10;100413.34;;;21.30;70.17
50590;BME280;36547;50.514;30.840;2023-06-22T03:40:13;100411.37;;;21.32;70.13
50590;BME280;36547;50.514;30.840;2023-06-22T03:41:15;100412.63;;;21.37;69.77
50590;BME280;36547;50.514;30.840;2023-06-22T03:42:18;100414.06;;;21.41;70.05
50590;BME280;36547;50.514;30.840;2023-06-22T03:43:21;100414.64;;;21.45;69.96
50590;BME280;36547;50.514;30.840;2023-06-22T03:44:24;100419.77;;;21.48;69.54
50590;BME280;36547;50.514;30.840;2023-06-22T03:45:26;100420.45;;;21.50;69.41
50590;BME280;36547;50.514;30.840;2023-06-22T03:46:28;100417.47;;;21.53;69.58
50590;BME280;36547;50.514;30.840;2023-06-22T03:47:32;100418.33;;;21.53;69.68
50590;BME280;36547;50.514;30.840;2023-06-22T03:48:34;100420.61;;;21.58;69.51
50590;BME280;36547;50.514;30.840;2023-06-22T03:49:37;100423.31;;;21.58;68.99
50590;BME280;36547;50.514;30.840;2023-06-22T03:50:39;100424.75;;;21.62;68.74
50590;BME280;36547;50.514;30.840;2023-06-22T03:51:43;100420.88;;;21.65;68.89
50590;BME280;36547;50.514;30.840;2023-06-22T03:52:45;100421.73;;;21.65;69.07
50590;BME280;36547;50.514;30.840;2023-06-22T03:53:48;100421.45;;;21.68;68.69
50590;BME280;36547;50.514;30.840;2023-06-22T03:54:50;100417.74;;;21.69;68.62
50590;BME280;36547;50.514;30.840;2023-06-22T03:55:53;100419.45;;;21.70;68.74
50590;BME280;36547;50.514;30.840;2023-06-22T03:56:57;100414.05;;;21.70;67.93
50590;BME280;36547;50.514;30.840;2023-06-22T03:58:00;100421.16;;;21.71;67.64
50590;BME280;36547;50.514;30.840;2023-06-22T03:59:02;100420.17;;;21.72;67.56
50590;BME280;36547;50.514;30.840;2023-06-22T04:00:05;100422.88;;;21.72;67.64
50590;BME280;36547;50.514;30.840;2023-06-22T04:01:10;100414.62;;;21.74;67.56
50590;BME280;36547;50.514;30.840;2023-06-22T04:02:12;100413.77;;;21.73;67.28
50590;BME280;36547;50.514;30.840;2023-06-22T04:03:15;100416.33;;;21.75;67.35
50590;BME280;36547;50.514;30.840;2023-06-22T04:04:18;100418.89;;;21.76;67.51
50590;BME280;36547;50.514;30.840;2023-06-22T04:05:21;100423.45;;;21.76;67.42
50590;BME280;36547;50.514;30.840;2023-06-22T04:06:23;100424.30;;;21.76;67.36
50590;BME280;36547;50.514;30.840;2023-06-22T04:07:25;100424.30;;;21.76;67.43
50590;BME280;36547;50.514;30.840;2023-06-22T04:08:28;100425.02;;;21.78;66.81
50590;BME280;36547;50.514;30.840;2023-06-22T04:09:30;100419.44;;;21.80;66.86
50590;BME280;36547;50.514;30.840;2023-06-22T04:10:32;100427.41;;;21.81;67.09
50590;BME280;36547;50.514;30.840;2023-06-22T04:11:35;100432.68;;;21.83;66.88
50590;BME280;36547;50.514;30.840;2023-06-22T04:12:37;100428.98;;;21.84;66.76
50590;BME280;36547;50.514;30.840;2023-06-22T04:13:40;100429.83;;;21.84;66.64
50590;BME280;36547;50.514;30.840;2023-06-22T04:14:43;100437.81;;;21.86;66.74
50590;BME280;36547;50.514;30.840;2023-06-22T04:15:45;100432.26;;;21.87;66.98
50590;BME280;36547;50.514;30.840;2023-06-22T04:16:47;100433.97;;;21.88;66.72
50590;BME280;36547;50.514;30.840;2023-06-22T04:17:50;100440.95;;;21.91;67.09
50590;BME280;36547;50.514;30.840;2023-06-22T04:18:52;100439.78;;;21.94;66.73
50590;BME280;36547;50.514;30.840;2023-06-22T04:19:55;100444.20;;;21.95;66.56
50590;BME280;36547;50.514;30.840;2023-06-22T04:20:57;100442.20;;;21.97;66.67
50590;BME280;36547;50.514;30.840;2023-06-22T04:21:59;100447.36;;;22.00;66.68
50590;BME280;36547;50.514;30.840;2023-06-22T04:23:02;100449.08;;;22.01;66.51
50590;BME280;36547;50.514;30.840;2023-06-22T04:24:05;100439.95;;;22.02;65.18
50590;BME280;36547;50.514;30.840;2023-06-22T04:25:07;100436.25;;;22.03;65.50
50590;BME280;36547;50.514;30.840;2023-06-22T04:26:10;100445.09;;;22.05;65.29
50590;BME280;36547;50.514;30.840;2023-06-22T04:27:12;100446.80;;;22.06;65.36
50590;BME280;36547;50.514;30.840;2023-06-22T04:28:15;100449.36;;;22.07;65.34
50590;BME280;36547;50.514;30.840;2023-06-22T04:29:17;100447.33;;;22.09;65.44
50590;BME280;36547;50.514;30.840;2023-06-22T04:30:20;100450.75;;;22.11;66.14
50590;BME280;36547;50.514;30.840;2023-06-22T04:31:22;100449.61;;;22.14;66.24
50590;BME280;36547;50.514;30.840;2023-06-22T04:32:24;100451.33;;;22.15;64.20
50590;BME280;36547;50.514;30.840;2023-06-22T04:33:27;100460.16;;;22.17;63.72
50590;BME280;36547;50.514;30.840;2023-06-22T04:34:29;100450.04;;;22.19;63.97
50590;BME280;36547;50.514;30.840;2023-06-22T04:35:31;100455.70;;;22.26;64.17
50590;BME280;36547;50.514;30.840;2023-06-22T04:37:38;100451.57;;;22.31;64.69
50590;BME280;36547;50.514;30.840;2023-06-22T04:38:42;100453.84;;;22.36;65.27
50590;BME280;36547;50.514;30.840;2023-06-22T04:39:44;100449.96;;;22.38;66.18
50590;BME280;36547;50.514;30.840;2023-06-22T04:40:46;100454.23;;;22.41;66.17
50590;BME280;36547;50.514;30.840;2023-06-22T04:41:50;100454.94;;;22.43;65.94
50590;BME280;36547;50.514;30.840;2023-06-22T04:42:53;100453.80;;;22.45;66.52
50590;BME280;36547;50.514;30.840;2023-06-22T04:43:55;100455.22;;;22.49;67.10
50590;BME280;36547;50.514;30.840;2023-06-22T04:44:58;100457.75;;;22.51;67.44
50590;BME280;36547;50.514;30.840;2023-06-22T04:46:02;100451.19;;;22.53;68.21
50590;BME280;36547;50.514;30.840;2023-06-22T04:47:04;100465.45;;;22.55;68.38
50590;BME280;36547;50.514;30.840;2023-06-22T04:48:06;100457.17;;;22.57;67.99
50590;BME280;36547;50.514;30.840;2023-06-22T04:49:10;100462.45;;;22.58;68.81
50590;BME280;36547;50.514;30.840;2023-06-22T04:50:12;100469.43;;;22.61;68.68
50590;BME280;36547;50.514;30.840;2023-06-22T04:51:15;100461.16;;;22.63;68.57
50590;BME280;36547;50.514;30.840;2023-06-22T04:52:18;100466.43;;;22.64;69.02
50590;BME280;36547;50.514;30.840;2023-06-22T04:53:20;100460.83;;;22.66;69.17
50590;BME280;36547;50.514;30.840;2023-06-22T04:54:23;100469.67;;;22.68;69.00
50590;BME280;36547;50.514;30.840;2023-06-22T04:55:25;100468.52;;;22.70;68.55
50590;BME280;36547;50.514;30.840;2023-06-22T04:56:27;100462.95;;;22.72;67.70
50590;BME280;36547;50.514;30.840;2023-06-22T04:57:30;100465.52;;;22.73;67.55
50590;BME280;36547;50.514;30.840;2023-06-22T04:58:33;100456.12;;;22.77;68.52
50590;BME280;36547;50.514;30.840;2023-06-22T04:59:36;100462.08;;;22.81;69.23
50590;BME280;36547;50.514;30.840;2023-06-22T05:00:39;100466.50;;;22.82;69.30
50590;BME280;36547;50.514;30.840;2023-06-22T05:01:41;100473.63;;;22.83;69.43
50590;BME280;36547;50.514;30.840;2023-06-22T05:02:45;100467.35;;;22.82;69.19
50590;BME280;36547;50.514;30.840;2023-06-22T05:03:48;100469.91;;;22.84;69.54
50590;BME280;36547;50.514;30.840;2023-06-22T05:04:51;100472.48;;;22.85;69.34
50590;BME280;36547;50.514;30.840;2023-06-22T05:05:54;100470.33;;;22.89;69.45
50590;BME280;36547;50.514;30.840;2023-06-22T05:06:58;100474.75;;;22.90;69.44
50590;BME280;36547;50.514;30.840;2023-06-22T05:08:01;100477.16;;;22.93;69.61
50590;BME280;36547;50.514;30.840;2023-06-22T05:09:03;100472.42;;;22.95;69.45
50590;BME280;36547;50.514;30.840;2023-06-22T05:10:07;100473.98;;;22.98;69.31
50590;BME280;36547;50.514;30.840;2023-06-22T05:11:10;100477.25;;;23.01;69.27
50590;BME280;36547;50.514;30.840;2023-06-22T05:12:12;100469.83;;;23.03;69.39
50590;BME280;36547;50.514;30.840;2023-06-22T05:13:15;100474.95;;;23.06;68.83
50590;BME280;36547;50.514;30.840;2023-06-22T05:14:18;100472.77;;;23.10;68.77
50590;BME280;36547;50.514;30.840;2023-06-22T05:15:21;100475.17;;;23.13;68.13
50590;BME280;36547;50.514;30.840;2023-06-22T05:16:24;100474.02;;;23.15;67.88
50590;BME280;36547;50.514;30.840;2023-06-22T05:17:27;100476.59;;;23.17;67.75
50590;BME280;36547;50.514;30.840;2023-06-22T05:18:30;100469.01;;;23.20;68.02
50590;BME280;36547;50.514;30.840;2023-06-22T05:19:34;100475.14;;;23.22;68.08
50590;BME280;36547;50.514;30.840;2023-06-22T05:20:37;100475.66;;;23.26;67.72
50590;BME280;36547;50.514;30.840;2023-06-22T05:21:40;100476.37;;;23.28;67.67
50590;BME280;36547;50.514;30.840;2023-06-22T05:22:42;100468.78;;;23.32;68.08
50590;BME280;36547;50.514;30.840;2023-06-22T05:23:44;100474.91;;;23.34;67.70
50590;BME280;36547;50.514;30.840;2023-06-22T05:24:48;100464.77;;;23.36;67.71
50590;BME280;36547;50.514;30.840;2023-06-22T05:25:51;100459.01;;;23.39;67.58
50590;BME280;36547;50.514;30.840;2023-06-22T05:26:54;100471.27;;;23.43;67.45
50590;BME280;36547;50.514;30.840;2023-06-22T05:27:57;100469.25;;;23.45;67.29
50590;BME280;36547;50.514;30.840;2023-06-22T05:29:00;100462.67;;;23.47;67.35
50590;BME280;36547;50.514;30.840;2023-06-22T05:30:03;100467.80;;;23.50;67.07
50590;BME280;36547;50.514;30.840;2023-06-22T05:31:06;100470.06;;;23.55;67.55
50590;BME280;36547;50.514;30.840;2023-06-22T05:32:09;100468.05;;;23.57;67.43
50590;BME280;36547;50.514;30.840;2023-06-22T05:33:11;100467.74;;;23.60;67.53
50590;BME280;36547;50.514;30.840;2023-06-22T05:34:14;100468.45;;;23.62;67.74
50590;BME280;36547;50.514;30.840;2023-06-22T05:35:16;100463.02;;;23.62;67.50
50590;BME280;36547;50.514;30.840;2023-06-22T05:36:18;100471.71;;;23.66;67.68
50590;BME280;36547;50.514;30.840;2023-06-22T05:37:21;100464.08;;;23.69;67.78
50590;BME280;36547;50.514;30.840;2023-06-22T05:38:24;100466.64;;;23.71;67.41
50590;BME280;36547;50.514;30.840;2023-06-22T05:39:26;100467.50;;;23.71;66.96
50590;BME280;36547;50.514;30.840;2023-06-22T05:40:29;100460.06;;;23.73;67.01
50590;BME280;36547;50.514;30.840;2023-06-22T05:41:32;100469.60;;;23.77;67.20